sensor_id;sensor_type;location;lat;lon;timestamp;P1;durP1;ratioP1;P2;durP2;ratioP2
50249;SDS011;36133;42.522;27.456;2023-03-14T00:00:53;25.75;;;13.55;;
50249;SDS011;36133;42.522;27.456;2023-03-14T00:03:19;22.50;;;12.52;;
50249;SDS011;36133;42.522;27.456;2023-03-14T00:05:44;24.00;;;14.02;;
50249;SDS011;36133;42.522;27.456;2023-03-14T00:08:10;24.00;;;13.73;;
50249;SDS011;36133;42.522;27.456;2023-03-14T00:10:36;26.63;;;13.18;;
50249;SDS011;36133;42.522;27.456;2023-03-14T00:13:02;33.63;;;13.95;;
50249;SDS011;36133;42.522;27.456;2023-03-14T00:15:27;24.33;;;13.25;;
50249;SDS011;36133;42.522;27.456;2023-03-14T00:17:53;26.17;;;13.40;;
50249;SDS011;36133;42.522;27.456;2023-03-14T00:20:19;23.95;;;14.52;;
50249;SDS011;36133;42.522;27.456;2023-03-14T00:22:44;24.90;;;13.23;;
50249;SDS011;36133;42.522;27.456;2023-03-14T00:25:10;22.77;;;13.80;;
50249;SDS011;36133;42.522;27.456;2023-03-14T00:27:36;25.10;;;13.50;;
50249;SDS011;36133;42.522;27.456;2023-03-14T00:30:03;24.63;;;14.50;;
50249;SDS011;36133;42.522;27.456;2023-03-14T00:32:30;25.02;;;13.52;;
50249;SDS011;36133;42.522;27.456;2023-03-14T00:34:55;25.27;;;13.68;;
50249;SDS011;36133;42.522;27.456;2023-03-14T00:37:21;23.88;;;13.75;;
50249;SDS011;36133;42.522;27.456;2023-03-14T00:39:47;22.63;;;12.90;;
50249;SDS011;36133;42.522;27.456;2023-03-14T00:42:12;27.15;;;13.55;;
50249;SDS011;36133;42.522;27.456;2023-03-14T00:44:38;24.13;;;13.52;;
50249;SDS011;36133;42.522;27.456;2023-03-14T00:47:04;33.80;;;14.95;;
50249;SDS011;36133;42.522;27.456;2023-03-14T00:49:29;25.60;;;15.45;;
50249;SDS011;36133;42.522;27.456;2023-03-14T00:51:55;32.95;;;17.58;;
50249;SDS011;36133;42.522;27.456;2023-03-14T00:54:20;35.00;;;18.60;;
50249;SDS011;36133;42.522;27.456;2023-03-14T00:56:46;41.60;;;20.05;;
50249;SDS011;36133;42.522;27.456;2023-03-14T00:59:12;40.90;;;19.58;;
50249;SDS011;36133;42.522;27.456;2023-03-14T01:01:38;42.50;;;21.02;;
50249;SDS011;36133;42.522;27.456;2023-03-14T01:04:05;40.50;;;20.27;;
50249;SDS011;36133;42.522;27.456;2023-03-14T01:06:31;33.30;;;17.70;;
50249;SDS011;36133;42.522;27.456;2023-03-14T01:08:56;41.20;;;19.23;;
50249;SDS011;36133;42.522;27.456;2023-03-14T01:11:23;36.53;;;19.00;;
50249;SDS011;36133;42.522;27.456;2023-03-14T01:13:51;39.72;;;18.92;;
50249;SDS011;36133;42.522;27.456;2023-03-14T01:16:17;34.90;;;18.42;;
50249;SDS011;36133;42.522;27.456;2023-03-14T01:18:44;35.60;;;18.05;;
50249;SDS011;36133;42.522;27.456;2023-03-14T01:21:12;38.03;;;19.83;;
50249;SDS011;36133;42.522;27.456;2023-03-14T01:23:51;37.88;;;20.27;;
50249;SDS011;36133;42.522;27.456;2023-03-14T01:26:19;42.78;;;21.92;;
50249;SDS011;36133;42.522;27.456;2023-03-14T01:28:47;37.95;;;23.05;;
50249;SDS011;36133;42.522;27.456;2023-03-14T01:31:13;38.08;;;21.77;;
50249;SDS011;36133;42.522;27.456;2023-03-14T01:33:40;38.35;;;20.30;;
50249;SDS011;36133;42.522;27.456;2023-03-14T01:36:06;30.40;;;17.45;;
50249;SDS011;36133;42.522;27.456;2023-03-14T01:38:33;27.58;;;15.77;;
50249;SDS011;36133;42.522;27.456;2023-03-14T01:41:00;25.70;;;14.93;;
50249;SDS011;36133;42.522;27.456;2023-03-14T01:43:26;32.05;;;15.65;;
50249;SDS011;36133;42.522;27.456;2023-03-14T01:49:02;39.22;;;18.20;;
50249;SDS011;36133;42.522;27.456;2023-03-14T01:51:36;43.67;;;23.15;;
50249;SDS011;36133;42.522;27.456;2023-03-14T01:54:25;38.03;;;22.10;;
50249;SDS011;36133;42.522;27.456;2023-03-14T01:59:36;28.80;;;17.33;;
50249;SDS011;36133;42.522;27.456;2023-03-14T02:02:04;22.90;;;11.82;;
50249;SDS011;36133;42.522;27.456;2023-03-14T02:04:33;23.17;;;12.20;;
50249;SDS011;36133;42.522;27.456;2023-03-14T02:07:14;22.95;;;12.32;;
50249;SDS011;36133;42.522;27.456;2023-03-14T02:09:42;24.75;;;12.48;;
50249;SDS011;36133;42.522;27.456;2023-03-14T02:12:09;23.13;;;11.77;;
50249;SDS011;36133;42.522;27.456;2023-03-14T02:14:36;20.63;;;10.98;;
50249;SDS011;36133;42.522;27.456;2023-03-14T02:17:03;23.65;;;11.73;;
50249;SDS011;36133;42.522;27.456;2023-03-14T02:19:36;19.95;;;11.05;;
50249;SDS011;36133;42.522;27.456;2023-03-14T02:22:15;18.98;;;11.57;;
50249;SDS011;36133;42.522;27.456;2023-03-14T02:27:47;18.58;;;11.10;;
50249;SDS011;36133;42.522;27.456;2023-03-14T02:32:46;20.50;;;10.48;;
50249;SDS011;36133;42.522;27.456;2023-03-14T02:35:15;21.50;;;11.02;;
50249;SDS011;36133;42.522;27.456;2023-03-14T02:37:52;19.48;;;11.15;;
50249;SDS011;36133;42.522;27.456;2023-03-14T02:40:36;21.88;;;11.05;;
50249;SDS011;36133;42.522;27.456;2023-03-14T02:43:02;17.33;;;10.48;;
50249;SDS011;36133;42.522;27.456;2023-03-14T02:45:35;21.30;;;11.77;;
50249;SDS011;36133;42.522;27.456;2023-03-14T02:48:06;17.88;;;10.35;;
50249;SDS011;36133;42.522;27.456;2023-03-14T02:50:35;15.57;;;9.52;;
50249;SDS011;36133;42.522;27.456;2023-03-14T02:53:01;21.98;;;10.50;;
50249;SDS011;36133;42.522;27.456;2023-03-14T02:55:27;22.08;;;10.52;;
50249;SDS011;36133;42.522;27.456;2023-03-14T02:57:52;22.45;;;9.70;;
50249;SDS011;36133;42.522;27.456;2023-03-14T03:00:18;18.40;;;9.88;;
50249;SDS011;36133;42.522;27.456;2023-03-14T03:02:45;19.88;;;10.45;;
50249;SDS011;36133;42.522;27.456;2023-03-14T03:05:11;18.20;;;10.73;;
50249;SDS011;36133;42.522;27.456;2023-03-14T03:07:36;17.33;;;11.02;;
50249;SDS011;36133;42.522;27.456;2023-03-14T03:10:02;28.27;;;14.80;;
50249;SDS011;36133;42.522;27.456;2023-03-14T03:12:29;41.65;;;18.83;;
50249;SDS011;36133;42.522;27.456;2023-03-14T03:14:54;50.67;;;22.50;;
50249;SDS011;36133;42.522;27.456;2023-03-14T03:17:20;48.55;;;22.65;;
50249;SDS011;36133;42.522;27.456;2023-03-14T03:19:45;53.58;;;23.73;;
50249;SDS011;36133;42.522;27.456;2023-03-14T03:22:11;42.38;;;21.92;;
50249;SDS011;36133;42.522;27.456;2023-03-14T03:24:36;41.58;;;20.35;;
50249;SDS011;36133;42.522;27.456;2023-03-14T03:27:02;39.35;;;19.88;;
50249;SDS011;36133;42.522;27.456;2023-03-14T03:29:27;34.25;;;16.10;;
50249;SDS011;36133;42.522;27.456;2023-03-14T03:31:53;30.70;;;15.50;;
50249;SDS011;36133;42.522;27.456;2023-03-14T03:34:18;50.03;;;20.55;;
50249;SDS011;36133;42.522;27.456;2023-03-14T03:36:44;47.45;;;20.15;;
50249;SDS011;36133;42.522;27.456;2023-03-14T03:39:09;36.55;;;17.98;;
50249;SDS011;36133;42.522;27.456;2023-03-14T03:41:35;36.13;;;17.95;;
50249;SDS011;36133;42.522;27.456;2023-03-14T03:44:00;31.25;;;14.48;;
50249;SDS011;36133;42.522;27.456;2023-03-14T03:46:26;33.30;;;16.10;;
50249;SDS011;36133;42.522;27.456;2023-03-14T03:48:55;30.95;;;15.35;;
50249;SDS011;36133;42.522;27.456;2023-03-14T03:51:21;27.27;;;13.25;;
50249;SDS011;36133;42.522;27.456;2023-03-14T03:53:47;31.63;;;14.05;;
50249;SDS011;36133;42.522;27.456;2023-03-14T03:56:13;24.88;;;12.95;;
50249;SDS011;36133;42.522;27.456;2023-03-14T03:58:38;27.75;;;14.80;;
50249;SDS011;36133;42.522;27.456;2023-03-14T04:01:04;24.58;;;13.45;;
50249;SDS011;36133;42.522;27.456;2023-03-14T04:03:31;26.70;;;15.32;;
50249;SDS011;36133;42.522;27.456;2023-03-14T04:06:08;29.45;;;14.32;;
50249;SDS011;36133;42.522;27.456;2023-03-14T04:08:36;25.83;;;14.38;;
50249;SDS011;36133;42.522;27.456;2023-03-14T04:11:02;35.63;;;15.85;;
50249;SDS011;36133;42.522;27.456;2023-03-14T04:13:28;27.50;;;15.15;;
50249;SDS011;36133;42.522;27.456;2023-03-14T04:15:54;27.67;;;14.70;;
50249;SDS011;36133;42.522;27.456;2023-03-14T04:18:20;23.95;;;14.32;;
50249;SDS011;36133;42.522;27.456;2023-03-14T04:20:50;29.40;;;15.25;;
50249;SDS011;36133;42.522;27.456;2023-03-14T04:23:16;30.13;;;15.38;;
50249;SDS011;36133;42.522;27.456;2023-03-14T04:25:42;22.70;;;14.85;;
50249;SDS011;36133;42.522;27.456;2023-03-14T04:28:07;27.23;;;15.25;;
50249;SDS011;36133;42.522;27.456;2023-03-14T04:30:33;26.67;;;15.18;;
50249;SDS011;36133;42.522;27.456;2023-03-14T04:32:58;27.40;;;14.90;;
50249;SDS011;36133;42.522;27.456;2023-03-14T04:35:24;25.77;;;14.25;;
50249;SDS011;36133;42.522;27.456;2023-03-14T04:37:49;24.90;;;13.82;;
50249;SDS011;36133;42.522;27.456;2023-03-14T04:40:17;22.25;;;13.52;;
50249;SDS011;36133;42.522;27.456;2023-03-14T04:42:43;26.70;;;15.25;;
50249;SDS011;36133;42.522;27.456;2023-03-14T04:45:09;26.60;;;16.00;;
50249;SDS011;36133;42.522;27.456;2023-03-14T04:47:34;26.02;;;15.77;;
50249;SDS011;36133;42.522;27.456;2023-03-14T04:50:00;33.75;;;16.45;;
50249;SDS011;36133;42.522;27.456;2023-03-14T04:52:26;30.33;;;17.50;;
50249;SDS011;36133;42.522;27.456;2023-03-14T04:54:52;37.05;;;19.60;;
50249;SDS011;36133;42.522;27.456;2023-03-14T04:57:17;39.85;;;20.15;;
50249;SDS011;36133;42.522;27.456;2023-03-14T04:59:43;39.63;;;20.60;;
50249;SDS011;36133;42.522;27.456;2023-03-14T05:02:08;35.97;;;20.67;;
50249;SDS011;36133;42.522;27.456;2023-03-14T05:04:34;45.47;;;24.60;;
50249;SDS011;36133;42.522;27.456;2023-03-14T05:07:00;41.03;;;22.90;;
50249;SDS011;36133;42.522;27.456;2023-03-14T05:09:26;41.28;;;20.88;;
50249;SDS011;36133;42.522;27.456;2023-03-14T05:11:51;49.15;;;23.08;;
50249;SDS011;36133;42.522;27.456;2023-03-14T05:14:17;38.05;;;20.50;;
50249;SDS011;36133;42.522;27.456;2023-03-14T05:16:42;39.33;;;19.40;;
50249;SDS011;36133;42.522;27.456;2023-03-14T05:19:08;39.90;;;19.70;;
50249;SDS011;36133;42.522;27.456;2023-03-14T05:21:35;36.33;;;17.88;;
50249;SDS011;36133;42.522;27.456;2023-03-14T05:24:01;28.45;;;17.58;;
50249;SDS011;36133;42.522;27.456;2023-03-14T05:26:27;30.45;;;16.15;;
50249;SDS011;36133;42.522;27.456;2023-03-14T05:28:52;29.42;;;14.98;;
50249;SDS011;36133;42.522;27.456;2023-03-14T05:31:18;32.60;;;16.90;;
50249;SDS011;36133;42.522;27.456;2023-03-14T05:33:43;29.95;;;16.88;;
50249;SDS011;36133;42.522;27.456;2023-03-14T05:36:09;32.55;;;16.70;;
50249;SDS011;36133;42.522;27.456;2023-03-14T05:38:35;27.23;;;14.68;;
50249;SDS011;36133;42.522;27.456;2023-03-14T05:41:00;26.90;;;14.98;;
50249;SDS011;36133;42.522;27.456;2023-03-14T05:43:26;27.63;;;14.50;;
50249;SDS011;36133;42.522;27.456;2023-03-14T05:45:51;36.35;;;17.27;;
50249;SDS011;36133;42.522;27.456;2023-03-14T05:48:16;39.42;;;21.40;;
50249;SDS011;36133;42.522;27.456;2023-03-14T05:50:43;32.42;;;15.70;;
50249;SDS011;36133;42.522;27.456;2023-03-14T05:53:09;22.40;;;13.40;;
50249;SDS011;36133;42.522;27.456;2023-03-14T05:55:34;28.77;;;13.60;;
50249;SDS011;36133;42.522;27.456;2023-03-14T05:58:00;25.80;;;11.65;;
50249;SDS011;36133;42.522;27.456;2023-03-14T06:00:26;19.85;;;11.65;;
50249;SDS011;36133;42.522;27.456;2023-03-14T06:02:51;25.42;;;10.02;;
50249;SDS011;36133;42.522;27.456;2023-03-14T06:05:17;16.90;;;9.38;;
50249;SDS011;36133;42.522;27.456;2023-03-14T06:07:43;21.85;;;10.13;;
50249;SDS011;36133;42.522;27.456;2023-03-14T06:10:08;18.30;;;9.95;;
50249;SDS011;36133;42.522;27.456;2023-03-14T06:12:34;17.13;;;9.38;;
50249;SDS011;36133;42.522;27.456;2023-03-14T06:15:00;19.85;;;9.85;;
50249;SDS011;36133;42.522;27.456;2023-03-14T06:17:25;23.52;;;11.07;;
50249;SDS011;36133;42.522;27.456;2023-03-14T06:19:51;28.98;;;16.08;;
50249;SDS011;36133;42.522;27.456;2023-03-14T06:22:16;22.48;;;13.25;;
50249;SDS011;36133;42.522;27.456;2023-03-14T06:24:42;22.48;;;12.95;;
50249;SDS011;36133;42.522;27.456;2023-03-14T06:27:07;26.48;;;17.23;;
50249;SDS011;36133;42.522;27.456;2023-03-14T06:29:33;19.17;;;10.60;;
50249;SDS011;36133;42.522;27.456;2023-03-14T06:31:59;30.95;;;17.40;;
50249;SDS011;36133;42.522;27.456;2023-03-14T06:34:24;29.63;;;14.63;;
50249;SDS011;36133;42.522;27.456;2023-03-14T06:36:50;28.45;;;15.63;;
50249;SDS011;36133;42.522;27.456;2023-03-14T06:39:16;40.35;;;22.20;;
50249;SDS011;36133;42.522;27.456;2023-03-14T06:41:41;38.78;;;21.25;;
50249;SDS011;36133;42.522;27.456;2023-03-14T06:44:07;28.77;;;17.35;;
50249;SDS011;36133;42.522;27.456;2023-03-14T06:46:32;40.60;;;21.50;;
50249;SDS011;36133;42.522;27.456;2023-03-14T06:48:58;33.50;;;17.58;;
50249;SDS011;36133;42.522;27.456;2023-03-14T06:51:23;35.60;;;21.25;;
50249;SDS011;36133;42.522;27.456;2023-03-14T06:53:49;34.45;;;22.45;;
50249;SDS011;36133;42.522;27.456;2023-03-14T06:56:15;36.10;;;21.67;;
50249;SDS011;36133;42.522;27.456;2023-03-14T06:58:40;36.50;;;17.77;;
50249;SDS011;36133;42.522;27.456;2023-03-14T07:01:10;28.95;;;16.60;;
50249;SDS011;36133;42.522;27.456;2023-03-14T07:03:49;26.88;;;15.20;;
50249;SDS011;36133;42.522;27.456;2023-03-14T07:06:15;30.00;;;16.73;;
50249;SDS011;36133;42.522;27.456;2023-03-14T07:08:41;23.13;;;13.20;;
50249;SDS011;36133;42.522;27.456;2023-03-14T07:11:07;21.52;;;12.73;;
50249;SDS011;36133;42.522;27.456;2023-03-14T07:13:33;28.35;;;18.15;;
50249;SDS011;36133;42.522;27.456;2023-03-14T07:15:58;24.15;;;11.55;;
50249;SDS011;36133;42.522;27.456;2023-03-14T07:18:24;23.25;;;9.98;;
50249;SDS011;36133;42.522;27.456;2023-03-14T07:20:49;24.10;;;11.82;;
50249;SDS011;36133;42.522;27.456;2023-03-14T07:23:15;22.17;;;12.27;;
50249;SDS011;36133;42.522;27.456;2023-03-14T07:25:40;16.70;;;10.40;;
50249;SDS011;36133;42.522;27.456;2023-03-14T07:28:06;22.63;;;11.20;;
50249;SDS011;36133;42.522;27.456;2023-03-14T07:30:32;19.83;;;10.32;;
50249;SDS011;36133;42.522;27.456;2023-03-14T07:32:58;21.40;;;10.90;;
50249;SDS011;36133;42.522;27.456;2023-03-14T07:35:23;20.98;;;10.93;;
50249;SDS011;36133;42.522;27.456;2023-03-14T07:37:49;19.98;;;13.20;;
50249;SDS011;36133;42.522;27.456;2023-03-14T07:40:14;17.17;;;11.77;;
50249;SDS011;36133;42.522;27.456;2023-03-14T07:42:41;17.25;;;10.73;;
50249;SDS011;36133;42.522;27.456;2023-03-14T07:45:07;20.13;;;11.27;;
50249;SDS011;36133;42.522;27.456;2023-03-14T07:47:34;22.20;;;11.50;;
50249;SDS011;36133;42.522;27.456;2023-03-14T07:50:00;18.42;;;11.13;;
50249;SDS011;36133;42.522;27.456;2023-03-14T07:52:26;24.42;;;12.10;;
50249;SDS011;36133;42.522;27.456;2023-03-14T07:54:52;20.40;;;13.10;;
50249;SDS011;36133;42.522;27.456;2023-03-14T07:57:17;21.75;;;11.98;;
50249;SDS011;36133;42.522;27.456;2023-03-14T07:59:43;17.92;;;10.60;;
50249;SDS011;36133;42.522;27.456;2023-03-14T08:02:12;20.48;;;11.85;;
50249;SDS011;36133;42.522;27.456;2023-03-14T08:04:38;16.05;;;11.10;;
50249;SDS011;36133;42.522;27.456;2023-03-14T08:07:07;19.88;;;12.18;;
50249;SDS011;36133;42.522;27.456;2023-03-14T08:09:33;17.98;;;10.48;;
50249;SDS011;36133;42.522;27.456;2023-03-14T08:11:59;20.27;;;9.85;;
50249;SDS011;36133;42.522;27.456;2023-03-14T08:14:24;15.38;;;10.10;;
50249;SDS011;36133;42.522;27.456;2023-03-14T08:16:50;14.02;;;8.80;;
50249;SDS011;36133;42.522;27.456;2023-03-14T08:19:16;16.50;;;9.07;;
50249;SDS011;36133;42.522;27.456;2023-03-14T08:21:42;10.63;;;6.55;;
50249;SDS011;36133;42.522;27.456;2023-03-14T08:24:08;12.27;;;4.38;;
50249;SDS011;36133;42.522;27.456;2023-03-14T08:26:34;10.90;;;4.53;;
50249;SDS011;36133;42.522;27.456;2023-03-14T08:28:59;6.82;;;3.63;;
50249;SDS011;36133;42.522;27.456;2023-03-14T08:31:25;6.38;;;3.38;;
50249;SDS011;36133;42.522;27.456;2023-03-14T08:33:50;7.07;;;2.58;;
50249;SDS011;36133;42.522;27.456;2023-03-14T08:36:17;6.40;;;1.98;;
50249;SDS011;36133;42.522;27.456;2023-03-14T08:38:43;5.00;;;2.20;;
50249;SDS011;36133;42.522;27.456;2023-03-14T08:41:09;9.45;;;2.67;;
50249;SDS011;36133;42.522;27.456;2023-03-14T08:43:35;9.70;;;2.60;;
50249;SDS011;36133;42.522;27.456;2023-03-14T08:46:01;7.75;;;2.35;;
50249;SDS011;36133;42.522;27.456;2023-03-14T08:48:27;5.72;;;2.03;;
50249;SDS011;36133;42.522;27.456;2023-03-14T08:50:54;9.45;;;1.77;;
50249;SDS011;36133;42.522;27.456;2023-03-14T08:53:21;6.63;;;2.17;;
50249;SDS011;36133;42.522;27.456;2023-03-14T08:55:51;7.28;;;2.00;;
50249;SDS011;36133;42.522;27.456;2023-03-14T08:58:17;3.65;;;1.80;;
50249;SDS011;36133;42.522;27.456;2023-03-14T09:00:43;6.78;;;2.38;;
50249;SDS011;36133;42.522;27.456;2023-03-14T09:03:08;8.70;;;2.50;;
50249;SDS011;36133;42.522;27.456;2023-03-14T09:05:34;6.18;;;2.47;;
50249;SDS011;36133;42.522;27.456;2023-03-14T09:08:00;13.40;;;3.88;;
50249;SDS011;36133;42.522;27.456;2023-03-14T09:10:26;6.90;;;2.55;;
50249;SDS011;36133;42.522;27.456;2023-03-14T09:12:52;6.40;;;2.90;;
50249;SDS011;36133;42.522;27.456;2023-03-14T09:15:17;6.88;;;2.85;;
50249;SDS011;36133;42.522;27.456;2023-03-14T09:17:43;7.15;;;3.13;;
50249;SDS011;36133;42.522;27.456;2023-03-14T09:20:09;6.22;;;3.03;;
50249;SDS011;36133;42.522;27.456;2023-03-14T09:22:39;6.00;;;2.75;;
50249;SDS011;36133;42.522;27.456;2023-03-14T09:25:05;6.95;;;2.97;;
50249;SDS011;36133;42.522;27.456;2023-03-14T09:27:33;8.63;;;3.15;;
50249;SDS011;36133;42.522;27.456;2023-03-14T09:29:59;5.57;;;3.15;;
50249;SDS011;36133;42.522;27.456;2023-03-14T09:32:24;8.75;;;3.33;;
50249;SDS011;36133;42.522;27.456;2023-03-14T09:34:51;6.88;;;3.80;;
50249;SDS011;36133;42.522;27.456;2023-03-14T09:37:17;25.40;;;4.70;;
50249;SDS011;36133;42.522;27.456;2023-03-14T09:39:42;11.82;;;4.38;;
50249;SDS011;36133;42.522;27.456;2023-03-14T09:42:11;9.63;;;4.50;;
50249;SDS011;36133;42.522;27.456;2023-03-14T09:45:02;8.65;;;4.38;;
50249;SDS011;36133;42.522;27.456;2023-03-14T09:47:30;10.82;;;4.45;;
50249;SDS011;36133;42.522;27.456;2023-03-14T09:49:58;10.55;;;4.80;;
50249;SDS011;36133;42.522;27.456;2023-03-14T09:52:27;13.40;;;4.63;;
50249;SDS011;36133;42.522;27.456;2023-03-14T09:55:06;7.78;;;3.70;;
50249;SDS011;36133;42.522;27.456;2023-03-14T09:57:40;8.75;;;3.45;;
50249;SDS011;36133;42.522;27.456;2023-03-14T10:00:15;14.52;;;3.92;;
50249;SDS011;36133;42.522;27.456;2023-03-14T10:02:55;7.93;;;3.40;;
50249;SDS011;36133;42.522;27.456;2023-03-14T10:05:25;10.55;;;3.40;;
50249;SDS011;36133;42.522;27.456;2023-03-14T10:07:52;5.10;;;2.83;;
50249;SDS011;36133;42.522;27.456;2023-03-14T10:10:19;8.77;;;2.78;;
50249;SDS011;36133;42.522;27.456;2023-03-14T10:12:47;8.65;;;2.67;;
50249;SDS011;36133;42.522;27.456;2023-03-14T10:15:22;5.40;;;2.80;;
50249;SDS011;36133;42.522;27.456;2023-03-14T10:17:58;5.97;;;2.33;;
50249;SDS011;36133;42.522;27.456;2023-03-14T10:20:30;7.50;;;2.47;;
50249;SDS011;36133;42.522;27.456;2023-03-14T10:23:06;11.05;;;2.80;;
50249;SDS011;36133;42.522;27.456;2023-03-14T10:25:58;9.73;;;3.35;;
50249;SDS011;36133;42.522;27.456;2023-03-14T10:28:29;8.63;;;2.58;;
50249;SDS011;36133;42.522;27.456;2023-03-14T10:30:57;7.50;;;2.40;;
50249;SDS011;36133;42.522;27.456;2023-03-14T10:33:24;4.93;;;2.05;;
50249;SDS011;36133;42.522;27.456;2023-03-14T10:35:52;5.32;;;2.45;;
50249;SDS011;36133;42.522;27.456;2023-03-14T10:38:21;11.73;;;2.90;;
50249;SDS011;36133;42.522;27.456;2023-03-14T10:40:50;7.82;;;2.10;;
50249;SDS011;36133;42.522;27.456;2023-03-14T10:43:19;7.57;;;2.80;;
50249;SDS011;36133;42.522;27.456;2023-03-14T10:45:58;5.00;;;2.60;;
50249;SDS011;36133;42.522;27.456;2023-03-14T10:48:37;5.90;;;2.58;;
50249;SDS011;36133;42.522;27.456;2023-03-14T10:51:26;6.22;;;2.53;;
50249;SDS011;36133;42.522;27.456;2023-03-14T10:54:13;6.25;;;2.75;;
50249;SDS011;36133;42.522;27.456;2023-03-14T10:56:44;6.45;;;2.72;;
50249;SDS011;36133;42.522;27.456;2023-03-14T10:59:13;4.32;;;1.90;;
50249;SDS011;36133;42.522;27.456;2023-03-14T11:18:15;6.28;;;2.30;;
50249;SDS011;36133;42.522;27.456;2023-03-14T11:32:09;14.70;;;3.00;;
50249;SDS011;36133;42.522;27.456;2023-03-14T11:37:25;7.47;;;2.40;;
50249;SDS011;36133;42.522;27.456;2023-03-14T11:42:46;5.63;;;2.50;;
50249;SDS011;36133;42.522;27.456;2023-03-14T11:45:19;9.35;;;2.30;;
50249;SDS011;36133;42.522;27.456;2023-03-14T11:48:05;4.85;;;1.83;;
50249;SDS011;36133;42.522;27.456;2023-03-14T11:50:39;9.05;;;2.42;;
50249;SDS011;36133;42.522;27.456;2023-03-14T11:53:09;8.43;;;2.20;;
50249;SDS011;36133;42.522;27.456;2023-03-14T11:55:42;4.97;;;1.88;;
50249;SDS011;36133;42.522;27.456;2023-03-14T12:00:45;7.20;;;2.75;;
50249;SDS011;36133;42.522;27.456;2023-03-14T12:03:34;5.43;;;2.10;;
50249;SDS011;36133;42.522;27.456;2023-03-14T12:09:11;5.90;;;2.55;;
50249;SDS011;36133;42.522;27.456;2023-03-14T12:11:51;5.65;;;2.22;;
50249;SDS011;36133;42.522;27.456;2023-03-14T12:16:55;6.57;;;2.42;;
50249;SDS011;36133;42.522;27.456;2023-03-14T12:21:50;5.15;;;2.30;;
50249;SDS011;36133;42.522;27.456;2023-03-14T12:24:18;5.55;;;2.38;;
50249;SDS011;36133;42.522;27.456;2023-03-14T12:26:52;5.80;;;1.90;;
50249;SDS011;36133;42.522;27.456;2023-03-14T12:29:20;7.10;;;2.35;;
50249;SDS011;36133;42.522;27.456;2023-03-14T12:31:47;4.20;;;2.05;;
50249;SDS011;36133;42.522;27.456;2023-03-14T12:34:33;4.20;;;2.08;;
50249;SDS011;36133;42.522;27.456;2023-03-14T12:39:40;6.25;;;2.20;;
50249;SDS011;36133;42.522;27.456;2023-03-14T12:42:39;6.72;;;2.47;;
50249;SDS011;36133;42.522;27.456;2023-03-14T12:48:00;3.88;;;1.77;;
50249;SDS011;36133;42.522;27.456;2023-03-14T12:50:42;5.45;;;2.10;;
50249;SDS011;36133;42.522;27.456;2023-03-14T12:53:53;4.97;;;2.17;;
50249;SDS011;36133;42.522;27.456;2023-03-14T12:56:26;9.40;;;2.10;;
50249;SDS011;36133;42.522;27.456;2023-03-14T13:02:20;8.25;;;2.30;;
50249;SDS011;36133;42.522;27.456;2023-03-14T13:04:50;9.65;;;3.03;;
50249;SDS011;36133;42.522;27.456;2023-03-14T13:10:27;5.87;;;2.87;;
50249;SDS011;36133;42.522;27.456;2023-03-14T13:12:56;9.32;;;2.60;;
50249;SDS011;36133;42.522;27.456;2023-03-14T13:15:34;6.07;;;2.53;;
50249;SDS011;36133;42.522;27.456;2023-03-14T13:18:48;5.07;;;2.30;;
50249;SDS011;36133;42.522;27.456;2023-03-14T13:21:11;6.03;;;2.28;;
50249;SDS011;36133;42.522;27.456;2023-03-14T13:24:02;6.33;;;2.60;;
50249;SDS011;36133;42.522;27.456;2023-03-14T13:26:34;7.72;;;2.70;;
50249;SDS011;36133;42.522;27.456;2023-03-14T13:31:45;6.07;;;3.00;;
50249;SDS011;36133;42.522;27.456;2023-03-14T13:34:12;6.47;;;2.78;;
50249;SDS011;36133;42.522;27.456;2023-03-14T13:36:38;5.28;;;2.63;;
50249;SDS011;36133;42.522;27.456;2023-03-14T13:39:06;5.82;;;3.25;;
50249;SDS011;36133;42.522;27.456;2023-03-14T13:41:55;7.78;;;3.13;;
50249;SDS011;36133;42.522;27.456;2023-03-14T13:44:26;9.32;;;3.35;;
50249;SDS011;36133;42.522;27.456;2023-03-14T13:46:59;8.38;;;3.50;;
50249;SDS011;36133;42.522;27.456;2023-03-14T13:49:44;12.98;;;3.15;;
50249;SDS011;36133;42.522;27.456;2023-03-14T13:54:56;5.63;;;2.58;;
50249;SDS011;36133;42.522;27.456;2023-03-14T13:57:24;6.28;;;2.90;;
50249;SDS011;36133;42.522;27.456;2023-03-14T14:00:06;7.13;;;2.85;;
50249;SDS011;36133;42.522;27.456;2023-03-14T14:02:35;8.90;;;3.40;;
50249;SDS011;36133;42.522;27.456;2023-03-14T14:05:03;5.90;;;2.42;;
50249;SDS011;36133;42.522;27.456;2023-03-14T14:07:29;3.50;;;2.08;;
50249;SDS011;36133;42.522;27.456;2023-03-14T14:09:55;4.45;;;2.53;;
50249;SDS011;36133;42.522;27.456;2023-03-14T14:12:25;6.85;;;2.47;;
50249;SDS011;36133;42.522;27.456;2023-03-14T14:15:00;9.18;;;2.85;;
50249;SDS011;36133;42.522;27.456;2023-03-14T14:20:03;4.95;;;2.50;;
50249;SDS011;36133;42.522;27.456;2023-03-14T14:22:34;8.05;;;2.55;;
50249;SDS011;36133;42.522;27.456;2023-03-14T14:25:00;6.60;;;2.35;;
50249;SDS011;36133;42.522;27.456;2023-03-14T14:27:33;5.43;;;2.20;;
50249;SDS011;36133;42.522;27.456;2023-03-14T14:30:06;4.15;;;2.40;;
50249;SDS011;36133;42.522;27.456;2023-03-14T14:32:52;5.80;;;2.15;;
50249;SDS011;36133;42.522;27.456;2023-03-14T14:35:31;5.05;;;2.20;;
50249;SDS011;36133;42.522;27.456;2023-03-14T14:37:58;6.22;;;1.80;;
50249;SDS011;36133;42.522;27.456;2023-03-14T14:40:29;6.95;;;2.95;;
50249;SDS011;36133;42.522;27.456;2023-03-14T14:43:02;5.60;;;2.00;;
50249;SDS011;36133;42.522;27.456;2023-03-14T14:45:29;6.47;;;2.20;;
50249;SDS011;36133;42.522;27.456;2023-03-14T14:48:02;6.43;;;1.90;;
50249;SDS011;36133;42.522;27.456;2023-03-14T14:50:39;5.53;;;2.20;;
50249;SDS011;36133;42.522;27.456;2023-03-14T14:55:43;4.72;;;1.85;;
50249;SDS011;36133;42.522;27.456;2023-03-14T14:58:16;4.40;;;2.35;;
50249;SDS011;36133;42.522;27.456;2023-03-14T15:00:48;4.65;;;2.17;;
50249;SDS011;36133;42.522;27.456;2023-03-14T15:03:17;7.05;;;2.08;;
50249;SDS011;36133;42.522;27.456;2023-03-14T15:05:43;5.55;;;2.30;;
50249;SDS011;36133;42.522;27.456;2023-03-14T15:08:09;5.85;;;2.35;;
50249;SDS011;36133;42.522;27.456;2023-03-14T15:10:36;5.20;;;2.00;;
50249;SDS011;36133;42.522;27.456;2023-03-14T15:13:02;4.45;;;1.83;;
50249;SDS011;36133;42.522;27.456;2023-03-14T15:15:27;7.00;;;2.05;;
50249;SDS011;36133;42.522;27.456;2023-03-14T15:17:53;5.88;;;2.25;;
50249;SDS011;36133;42.522;27.456;2023-03-14T15:20:19;5.75;;;2.50;;
50249;SDS011;36133;42.522;27.456;2023-03-14T15:22:45;7.22;;;2.55;;
50249;SDS011;36133;42.522;27.456;2023-03-14T15:25:11;6.22;;;2.10;;
50249;SDS011;36133;42.522;27.456;2023-03-14T15:27:37;4.10;;;1.73;;
50249;SDS011;36133;42.522;27.456;2023-03-14T15:30:14;7.65;;;2.28;;
50249;SDS011;36133;42.522;27.456;2023-03-14T15:32:40;3.40;;;2.30;;
50249;SDS011;36133;42.522;27.456;2023-03-14T15:35:06;6.80;;;1.80;;
50249;SDS011;36133;42.522;27.456;2023-03-14T15:37:32;10.32;;;2.58;;
50249;SDS011;36133;42.522;27.456;2023-03-14T15:39:58;3.15;;;1.90;;
50249;SDS011;36133;42.522;27.456;2023-03-14T15:42:24;4.75;;;1.67;;
50249;SDS011;36133;42.522;27.456;2023-03-14T15:44:50;5.80;;;2.63;;